YMHBNFFN

Guest
Details From YMHB - Hobart
To NFFN - Nadi Intl
Flight Number -
Tags Generated
Created
Modified
Stats Distance 2,141 nm / 3,965 km
Max Altitude 0 ft / 0 m
Waypoints 3
Social Downloads 1
Likes 0
Share VATSIM

Download

Looking for another format? Having issues loading an existing format? Contact us
Advertisement - Login to hide

Notes

Generated

Route

YMHB MINB NFFN

ID Type Via Altitude Latitude Longitude Leg Dist Tot Dist Heading (true) Name
O YMHB APT - 0 ft / 0 m -42.82898˚ 147.50206˚ - 0 nm - -
MINB FIX - 0 ft / 0 m -17.90000˚ 177.32556˚ 2130 nm 2130 nm 55° / 39° -
O NFFN APT - 0 ft / 0 m -17.75352˚ 177.43591˚ 10 nm 2141 nm 36° / 36° -

Altitude Profile

Advertisement - Login to hide

Weather


0- 5 10 15 20 25 30 35+ Temperature / ° C

Clouds and Precipitation
Forecast for 2017-12-11 06:00 UTC. Updated 38 minutes ago

Ground ~20,000 ft ~40,000 ft Winds

YMHB

Details ICAO YMHB (HBA)
Name Hobart
Region Australia
Timezone Australia/Hobart (UTC+11.0)
Stats Elevation 12 ft / 4 m (AMSL)
Location -42.836167° 147.511798°
Runways 1
Magnetic Variation 15.098° E

METAR

YMHB 110530Z 15011KT 9999 FEW045 SCT065 BKN280 21/12 Q1016 RF00.0/000.0

Decode

TAF

TAF YMHB 110506Z 1106/1206 14012KT 9999 SCT040 FM110900 32004KT CAVOK FM120200 14014KT CAVOK

Decode

Departure Runways

ID Width Length Bearing (true) Bearing (mag) Surface Threshold Offset Overrun Length
12 148 ft / 45 m 7,379 ft / 2,249 m 135.11° 120.01° Asphalt 0 ft / 0 m 0 ft / 0 m
30 148 ft / 45 m 7,379 ft / 2,249 m 315.09° 299.99° Asphalt 0 ft / 0 m 0 ft / 0 m

NFFN

Details ICAO NFFN (NAN)
Name Nadi Intl
Region Fiji and Tonga
Timezone Pacific/Fiji (UTC+13.0)
Stats Elevation 59 ft / 18 m (AMSL)
Location -17.758366° 177.442147°
Runways 2
Magnetic Variation 12.399° E

METAR

NFFN 110500Z 29007KT 260V320 9999 VCSH SCT024TCU BKN110 29/23 Q1005 NOSIG

Decode

TAF

TAF NFFN 110511Z 1106/1206 10007KT 9999 FEW025 SCT050 BECMG 1121/1123 27010KT PROB30 TEMPO 1202/1206 5000 TSRA FEW018CB BECMG 1204/1206 10007KT

Decode

Destination Runways

ID Width Length Bearing (true) Bearing (mag) Surface Threshold Offset Overrun Length
02 151 ft / 46 m 10,529 ft / 3,209 m 37.50° 25.10° Asphalt 0 ft / 0 m 0 ft / 0 m
09 151 ft / 46 m 6,989 ft / 2,130 m 104.20° 91.80° Asphalt 0 ft / 0 m 95 ft / 29 m
20 151 ft / 46 m 10,529 ft / 3,209 m 217.50° 205.10° Asphalt 0 ft / 0 m 0 ft / 0 m
27 151 ft / 46 m 6,989 ft / 2,130 m 284.20° 271.80° Asphalt 0 ft / 0 m 0 ft / 0 m

Approach Navaids

Runway Type Ident Frequency Range Bearing (true) Bearing (mag) Slope Elevation
02 Localiser INN 109.90 MHz 18 nm / 33 km 37.49° 25.09° - 41 ft / 12 m (AMSL)
02 Glidescope INN 109.90 MHz 10 nm / 19 km 37.50° 25.10° 3.00° 59 ft / 18 m (AMSL)